Oelwein, IA

4:03 PM CST on December 08, 2019 (GMT -0600)
Oelwein Municipal

Weather History for KOLZ - October, 2019

Change the Weather History Date:

Wednesday, October 16, 2019

  Actual Average Record
Temperature  
Mean Temperature 42 °F -  
Max Temperature 46 °F 60 °F 83 °F (1953)
Min Temperature 39 °F 37 °F 17 °F (1952)
Degree Days  
Heating Degree Days 22    
Moisture  
Dew Point 39 °F    
Average Humidity 85    
Maximum Humidity 100    
Minimum Humidity 71    
Precipitation  
Precipitation 0.00 in - - ()
Sea Level Pressure  
Sea Level Pressure 30.06 in    
Wind  
Wind Speed 13 mph (NW)    
Max Wind Speed 18 mph    
Max Gust Speed 28 mph    
Visibility 10 miles    
Events      
Averages and records for this station are not official NWS values.
T = Trace of Precipitation, MM = Missing Value Source: NWS Daily Summary

Daily Weather History Graph

Daily Weather History Graph

Search for Another Location

Airport or City:

Astronomy

Oct. 16, 2019 Rise Set
Actual Time 7:21 AM CDT 6:24 PM CDT
Civil Twilight 6:53 AM CDT 6:52 PM CDT
Nautical Twilight 6:20 AM CDT 7:25 PM CDT
Astronomical Twilight 5:48 AM CDT 7:58 PM CDT
Moon 8:14 PM CDT (10/16) 9:55 AM CDT (10/16)
Length of Visible Light 11h 59m
Length of Day
11h 02m
Waning Gibbous, 92% of the Moon is Illuminated
Oct 16
Waning Gibbous
Oct 21
Last Quarter
Oct 27
New
Nov 4
First Quarter
Nov 12
Full

Hourly Weather History & Observations

Time (CDT) Temp. Windchill Dew Point Humidity Pressure Visibility Wind Dir Wind Speed Gust Speed Precip Events Conditions
12:15 AM - - - N/A% 29.99 in 9.0 mi NW 12.7 mph 19.6 mph N/A   Overcast
12:35 AM 42.8 °F 34.8 °F 42.8 °F 100% 29.99 in 10.0 mi NW 17.3 mph - N/A   Overcast
12:55 AM 42.8 °F 34.8 °F 42.8 °F 100% 29.99 in 10.0 mi NW 17.3 mph - N/A   Overcast
1:15 AM 42.8 °F 35.4 °F 42.8 °F 100% 29.99 in 10.0 mi NW 15.0 mph 20.7 mph N/A   Overcast
1:35 AM 42.8 °F 35.1 °F 42.8 °F 100% 30.00 in 10.0 mi NW 16.1 mph 21.9 mph N/A   Overcast
1:55 AM 42.8 °F 35.1 °F 42.8 °F 100% 30.00 in 10.0 mi NW 16.1 mph - N/A   Overcast
2:15 AM 42.8 °F 35.1 °F 42.8 °F 100% 30.01 in 10.0 mi NW 16.1 mph 23.0 mph N/A   Overcast
2:35 AM 42.8 °F 34.8 °F 42.8 °F 100% 30.02 in 10.0 mi NW 17.3 mph - N/A   Overcast
2:55 AM 42.8 °F 35.8 °F 42.8 °F 100% 30.02 in 10.0 mi NW 13.8 mph 20.7 mph N/A   Overcast
3:15 AM 42.8 °F 34.8 °F 41.0 °F 93% 30.02 in 10.0 mi NW 17.3 mph 24.2 mph N/A   Overcast
3:35 AM 42.8 °F 35.4 °F 41.0 °F 93% 30.02 in 10.0 mi NW 15.0 mph 23.0 mph N/A   Overcast
3:55 AM 42.8 °F 36.2 °F 39.2 °F 87% 30.02 in 10.0 mi NNW 12.7 mph 21.9 mph N/A   Overcast
4:15 AM 42.8 °F 35.4 °F 39.2 °F 87% 30.02 in 10.0 mi NNW 15.0 mph 21.9 mph N/A   Overcast
4:35 AM 42.8 °F 34.5 °F 37.4 °F 81% 30.03 in 10.0 mi NNW 18.4 mph 25.3 mph N/A   Overcast
4:55 AM 42.8 °F 37.5 °F 39.2 °F 87% 30.04 in 10.0 mi NNW 9.2 mph 19.6 mph N/A   Overcast
5:35 AM 41.0 °F 33.1 °F 39.2 °F 93% 30.05 in 10.0 mi NW 15.0 mph 24.2 mph N/A   Overcast
5:55 AM 41.0 °F 33.1 °F 39.2 °F 93% 30.05 in 10.0 mi NW 15.0 mph 20.7 mph N/A   Overcast
6:15 AM 41.0 °F 33.1 °F 39.2 °F 93% 30.05 in 10.0 mi NW 15.0 mph - N/A   Overcast
6:35 AM 41.0 °F 33.9 °F 39.2 °F 93% 30.06 in 10.0 mi NW 12.7 mph - N/A   Overcast
6:55 AM 41.0 °F 33.9 °F 39.2 °F 93% 30.06 in 10.0 mi NW 12.7 mph - N/A   Scattered Clouds
7:15 AM 39.2 °F 32.5 °F 39.2 °F 100% 30.06 in 10.0 mi NW 10.4 mph - N/A   Clear
7:35 AM 39.2 °F 32.0 °F 39.2 °F 100% 30.06 in 10.0 mi NW 11.5 mph - N/A   Mostly Cloudy
7:55 AM 41.0 °F 34.3 °F 39.2 °F 93% 30.06 in 10.0 mi NW 11.5 mph - N/A   Overcast
8:15 AM 41.0 °F 33.9 °F 41.0 °F 100% 30.06 in 10.0 mi NW 12.7 mph 18.4 mph N/A   Overcast
8:35 AM 41.0 °F 33.5 °F 41.0 °F 100% 30.07 in 9.0 mi NW 13.8 mph - N/A   Overcast
9:15 AM 44.6 °F 37.4 °F 42.8 °F 93% 30.08 in 10.0 mi NW 16.1 mph 27.6 mph N/A   Mostly Cloudy
9:35 AM 44.6 °F 37.4 °F 41.0 °F 87% 30.08 in 10.0 mi NW 16.1 mph 24.2 mph N/A   Mostly Cloudy
9:55 AM 44.6 °F 38.4 °F 41.0 °F 87% 30.09 in 10.0 mi NW 12.7 mph 20.7 mph N/A   Overcast
10:15 AM 44.6 °F 36.9 °F 41.0 °F 87% 30.09 in 10.0 mi NNW 18.4 mph - N/A   Overcast
10:35 AM 46.4 °F 39.8 °F 41.0 °F 81% 30.10 in 10.0 mi NW 16.1 mph 24.2 mph N/A   Overcast
10:55 AM 46.4 °F 40.1 °F 39.2 °F 76% 30.10 in 10.0 mi NNW 15.0 mph 24.2 mph N/A   Overcast
11:15 AM 46.4 °F 39.8 °F 39.2 °F 76% 30.10 in 10.0 mi NW 16.1 mph 23.0 mph N/A   Overcast
11:35 AM 46.4 °F 40.1 °F 39.2 °F 76% 30.10 in 10.0 mi NW 15.0 mph 23.0 mph N/A   Overcast
12:15 PM 46.4 °F 40.1 °F 39.2 °F 76% 30.11 in 10.0 mi NW 15.0 mph 20.7 mph N/A   Overcast
12:35 PM 46.4 °F 39.5 °F 39.2 °F 76% 30.10 in 10.0 mi NNW 17.3 mph - N/A   Overcast
12:55 PM 46.4 °F 40.1 °F 39.2 °F 76% 30.10 in 10.0 mi NW 15.0 mph 21.9 mph N/A   Overcast
1:15 PM 46.4 °F 40.1 °F 39.2 °F 76% 30.10 in 10.0 mi NNW 15.0 mph - N/A   Overcast
1:35 PM 46.4 °F 40.4 °F 39.2 °F 76% 30.10 in 10.0 mi NW 13.8 mph 20.7 mph N/A   Overcast
1:55 PM 46.4 °F 40.7 °F 39.2 °F 76% 30.09 in 10.0 mi NW 12.7 mph 19.6 mph N/A   Overcast
2:15 PM 46.4 °F 40.4 °F 39.2 °F 76% 30.09 in 10.0 mi NW 13.8 mph - N/A   Overcast
2:35 PM 46.4 °F 41.9 °F 37.4 °F 71% 30.09 in 10.0 mi NNW 9.2 mph 19.6 mph N/A   Overcast
2:55 PM 46.4 °F 41.1 °F 39.2 °F 76% 30.08 in 10.0 mi NW 11.5 mph 18.4 mph N/A   Overcast
3:15 PM 46.4 °F 40.4 °F 37.4 °F 71% 30.08 in 10.0 mi NW 13.8 mph - N/A   Overcast
3:35 PM 46.4 °F 40.4 °F 37.4 °F 71% 30.08 in 10.0 mi NW 13.8 mph - N/A   Overcast
3:55 PM 46.4 °F 40.4 °F 37.4 °F 71% 30.08 in 10.0 mi NNW 13.8 mph 19.6 mph N/A   Overcast
4:15 PM 46.4 °F 41.9 °F 37.4 °F 71% 30.08 in 10.0 mi NW 9.2 mph 17.3 mph N/A   Overcast
4:35 PM 46.4 °F 40.7 °F 37.4 °F 71% 30.08 in 10.0 mi NW 12.7 mph - N/A   Overcast
4:55 PM 46.4 °F 41.9 °F 37.4 °F 71% 30.08 in 10.0 mi NW 9.2 mph 17.3 mph N/A   Overcast
5:15 PM 46.4 °F 41.5 °F 37.4 °F 71% 30.07 in 10.0 mi NW 10.4 mph 16.1 mph N/A   Overcast
5:35 PM 46.4 °F 42.4 °F 37.4 °F 71% 30.08 in 10.0 mi NW 8.1 mph - N/A   Overcast
5:55 PM 44.6 °F 40.7 °F 37.4 °F 76% 30.08 in 10.0 mi NNW 6.9 mph 15.0 mph N/A   Overcast
6:15 PM 44.6 °F 40.2 °F 37.4 °F 76% 30.07 in 10.0 mi NW 8.1 mph - N/A   Overcast
6:35 PM 44.6 °F 40.2 °F 37.4 °F 76% 30.07 in 10.0 mi NW 8.1 mph - N/A   Overcast
6:55 PM 44.6 °F 40.2 °F 37.4 °F 76% 30.07 in 10.0 mi NNW 8.1 mph - N/A   Overcast
7:15 PM 44.6 °F 41.4 °F 37.4 °F 76% 30.07 in 10.0 mi NW 5.8 mph 12.7 mph N/A   Overcast
7:35 PM 44.6 °F 40.7 °F 37.4 °F 76% 30.08 in 10.0 mi NW 6.9 mph - N/A   Overcast
7:55 PM 44.6 °F 41.4 °F 37.4 °F 76% 30.08 in 10.0 mi NW 5.8 mph - N/A   Overcast
8:15 PM 44.6 °F 40.2 °F 37.4 °F 76% 30.08 in 10.0 mi NW 8.1 mph - N/A   Overcast
8:35 PM 44.6 °F 41.4 °F 37.4 °F 76% 30.08 in 10.0 mi NW 5.8 mph - N/A   Overcast
8:55 PM 42.8 °F 40.1 °F 37.4 °F 81% 30.07 in 10.0 mi NNW 4.6 mph - N/A   Overcast
9:15 PM 42.8 °F 40.1 °F 37.4 °F 81% 30.07 in 10.0 mi NNW 4.6 mph - N/A   Mostly Cloudy
9:35 PM 41.0 °F 39.0 °F 37.4 °F 87% 30.07 in 10.0 mi NNW 3.5 mph - N/A   Partly Cloudy
9:55 PM 41.0 °F - 37.4 °F 87% 30.07 in 10.0 mi Calm Calm - N/A   Mostly Cloudy
10:15 PM 41.0 °F - 37.4 °F 87% 30.07 in 10.0 mi Calm Calm - N/A   Overcast
10:35 PM 39.2 °F - 37.4 °F 93% 30.08 in 10.0 mi Calm Calm - N/A   Mostly Cloudy
10:55 PM 39.2 °F 37.0 °F 39.2 °F 100% 30.09 in 10.0 mi NW 3.5 mph - N/A   Overcast
11:15 PM 39.2 °F - 39.2 °F 100% 30.09 in 10.0 mi Calm Calm - N/A   Overcast
11:55 PM 39.2 °F - 39.2 °F 100% 30.08 in 10.0 mi Calm Calm - N/A   Overcast